Time;durP1;ratioP1;P1;durP2;ratioP2;P2;SDS_P1;SDS_P2;PMS_P1;PMS_P2;Temp;Humidity;BMP_temperature;BMP_pressure;BME280_temperature;BME280_humidity;BME280_pressure;Samples;Min_cycle;Max_cycle;Signal;HPM_P1;HPM_P2
2022/07/23 00:01:38;;;;;;;12.77;4.22;;;;;;;22.52;57.41;100429.03;5019849;28;20136;-56
2022/07/23 00:04:05;;;;;;;17.80;4.93;;;;;;;22.61;57.57;100441.09;5027085;28;20523;-55
2022/07/23 00:06:32;;;;;;;11.30;4.78;;;;;;;22.58;57.38;100444.66;5017002;28;20068;-56
2022/07/23 00:08:58;;;;;;;8.93;4.35;;;;;;;22.59;57.51;100440.59;5025856;28;20073;-55
2022/07/23 00:11:26;;;;;;;13.00;5.15;;;;;;;22.66;57.52;100457.88;5027634;28;20045;-56
2022/07/23 00:13:54;;;;;;;11.02;4.63;;;;;;;22.59;57.68;100440.59;5033309;28;20111;-55
2022/07/23 00:16:21;;;;;;;11.00;4.43;;;;;;;22.60;57.49;100453.66;5027987;28;20049;-54
2022/07/23 00:18:48;;;;;;;15.95;5.60;;;;;;;22.57;57.94;100446.69;5025351;28;20053;-57
2022/07/23 00:21:15;;;;;;;19.73;5.78;;;;;;;22.52;57.44;100446.09;5033410;28;20077;-59
2022/07/23 00:23:50;;;;;;;14.77;4.22;;;;;;;22.51;57.54;100433.09;5033039;28;20136;-58
2022/07/23 00:26:17;;;;;;;13.82;4.85;;;;;;;22.16;57.85;100383.34;5023564;28;20085;-57
2022/07/23 00:28:44;;;;;;;15.35;4.97;;;;;;;22.43;57.78;100438.56;5030046;28;20048;-56
2022/07/23 00:31:10;;;;;;;17.00;5.38;;;;;;;22.24;58.02;100407.13;5040729;28;20080;-58
2022/07/23 00:33:37;;;;;;;9.77;4.68;;;;;;;22.47;58.00;100439.50;5030287;28;20104;-57
2022/07/23 00:36:04;;;;;;;19.08;5.72;;;;;;;22.45;58.46;100429.66;5033599;28;20136;-57
2022/07/23 00:38:31;;;;;;;15.88;5.10;;;;;;;22.35;58.54;100425.31;5024518;28;20084;-56
2022/07/23 00:40:58;;;;;;;15.55;4.70;;;;;;;22.39;58.21;100443.34;5031360;28;20141;-57
2022/07/23 00:43:25;;;;;;;13.18;7.07;;;;;;;22.35;58.25;100436.69;5033497;28;20460;-57
2022/07/23 00:45:52;;;;;;;11.43;5.57;;;;;;;22.30;58.35;100436.97;5032004;28;20056;-57
2022/07/23 00:48:19;;;;;;;9.95;4.72;;;;;;;22.20;58.44;100423.28;5036530;28;20132;-56
2022/07/23 00:50:46;;;;;;;12.77;5.32;;;;;;;22.13;58.87;100425.88;5028010;28;20133;-56
2022/07/23 00:53:14;;;;;;;18.23;4.55;;;;;;;22.18;58.78;100442.72;5027388;28;20058;-56
2022/07/23 00:55:41;;;;;;;11.63;4.97;;;;;;;21.76;58.94;100387.03;5033463;28;20068;-56
2022/07/23 00:58:09;;;;;;;18.80;4.90;;;;;;;22.09;59.22;100436.34;5037624;28;20140;-55
2022/07/23 01:00:36;;;;;;;13.95;5.15;;;;;;;22.06;59.28;100434.22;5034510;28;20117;-55
2022/07/23 01:03:03;;;;;;;16.83;4.80;;;;;;;22.00;59.11;100420.22;5035045;28;20128;-56
2022/07/23 01:05:30;;;;;;;9.55;4.32;;;;;;;22.00;59.19;100425.91;5024580;28;20491;-56
2022/07/23 01:07:56;;;;;;;12.25;5.60;;;;;;;21.69;59.33;100364.09;5033541;28;20080;-57
2022/07/23 01:10:33;;;;;;;12.73;4.68;;;;;;;22.05;59.43;100424.00;5027472;28;20138;-58
2022/07/23 01:13:01;;;;;;;10.10;4.63;;;;;;;22.00;59.03;100425.09;5032107;28;20084;-57
2022/07/23 01:15:29;;;;;;;13.77;5.15;;;;;;;21.90;59.28;100408.56;5022851;28;20132;-60
2022/07/23 01:17:56;;;;;;;10.88;4.65;;;;;;;21.85;59.49;100406.81;5029668;28;20095;-60
2022/07/23 01:20:23;;;;;;;10.48;5.63;;;;;;;21.89;59.11;100415.44;5023447;28;20073;-60
2022/07/23 01:22:50;;;;;;;9.10;4.68;;;;;;;21.70;59.53;100393.34;5031335;28;20099;-60
2022/07/23 01:25:17;;;;;;;9.02;5.18;;;;;;;21.81;59.63;100420.06;5028232;28;20077;-59
2022/07/23 01:27:44;;;;;;;16.25;5.57;;;;;;;21.59;60.04;100395.84;5019521;28;20054;-58
2022/07/23 01:30:12;;;;;;;14.40;6.68;;;;;;;21.45;60.01;100362.16;5026229;28;20053;-59
2022/07/23 01:32:39;;;;;;;14.02;5.35;;;;;;;21.77;59.81;100407.75;5024878;28;22220;-58
2022/07/23 01:35:07;;;;;;;14.45;5.57;;;;;;;21.74;60.02;100391.41;5026302;28;20136;-56
2022/07/23 01:37:35;;;;;;;14.13;6.15;;;;;;;21.77;60.02;100410.59;5021610;28;20069;-56
2022/07/23 01:40:03;;;;;;;11.88;5.10;;;;;;;21.73;59.74;100398.31;5023293;28;20140;-58
2022/07/23 01:42:30;;;;;;;20.83;5.20;;;;;;;21.69;59.65;100400.22;5027894;28;20123;-57
2022/07/23 01:44:57;;;;;;;12.95;5.30;;;;;;;21.66;60.21;100398.09;5019324;28;20547;-57
2022/07/23 01:47:24;;;;;;;9.20;4.50;;;;;;;21.63;60.19;100393.13;5023012;28;20050;-57
2022/07/23 01:49:50;;;;;;;19.40;5.13;;;;;;;21.49;60.27;100377.28;5026065;28;20500;-56
2022/07/23 01:52:17;;;;;;;19.48;5.38;;;;;;;21.54;60.46;100384.75;5032957;28;20124;-57
2022/07/23 01:54:44;;;;;;;10.95;5.82;;;;;;;21.57;60.58;100397.38;5030893;28;20523;-56
2022/07/23 01:57:11;;;;;;;14.73;4.32;;;;;;;21.52;60.16;100390.78;5025248;28;20547;-57
2022/07/23 01:59:39;;;;;;;17.73;5.35;;;;;;;21.52;60.18;100393.63;5031060;28;20164;-58
2022/07/23 02:02:06;;;;;;;13.65;5.90;;;;;;;21.51;60.30;100391.97;5030135;28;20045;-58
2022/07/23 02:04:36;;;;;;;16.38;5.57;;;;;;;21.43;60.47;100381.56;5025739;28;20113;-58
2022/07/23 02:07:04;;;;;;;12.75;5.30;;;;;;;21.53;60.39;100383.91;5029199;28;20057;-57
2022/07/23 02:09:31;;;;;;;18.33;5.05;;;;;;;21.50;60.49;100396.00;5028299;28;20468;-57
2022/07/23 02:11:58;;;;;;;18.70;5.07;;;;;;;21.33;60.58;100384.84;5050360;28;20078;-58
2022/07/23 02:14:25;;;;;;;12.43;4.88;;;;;;;21.19;60.62;100373.03;5025655;28;20085;-55
2022/07/23 02:16:52;;;;;;;15.18;5.03;;;;;;;21.39;60.60;100403.34;5029397;28;20103;-53
2022/07/23 02:19:19;;;;;;;20.83;4.75;;;;;;;21.22;60.75;100372.34;5026871;28;20507;-55
2022/07/23 02:21:46;;;;;;;9.95;4.28;;;;;;;21.21;60.85;100379.22;5028552;28;20073;-56
2022/07/23 02:24:15;;;;;;;16.83;5.72;;;;;;;21.28;60.87;100396.47;5031222;28;20049;-55
2022/07/23 02:26:41;;;;;;;10.25;5.80;;;;;;;21.27;61.23;100392.00;5023927;28;20128;-55
2022/07/23 02:29:09;;;;;;;16.55;5.60;;;;;;;21.33;60.94;100396.22;5018597;28;20136;-56
2022/07/23 02:31:36;;;;;;;15.25;5.05;;;;;;;21.30;61.04;100391.28;5031157;28;20141;-55
2022/07/23 02:34:03;;;;;;;11.77;4.88;;;;;;;21.37;61.03;100391.53;5022603;28;20477;-56
2022/07/23 02:36:35;;;;;;;14.95;5.00;;;;;;;21.25;61.01;100372.44;5020823;28;20132;-57
2022/07/23 02:39:41;;;;;;;17.65;4.95;;;;;;;21.40;61.21;100402.19;5025161;28;20045;-58
2022/07/23 02:42:08;;;;;;;10.10;4.70;;;;;;;21.36;60.97;100387.00;5029387;28;20129;-55
2022/07/23 02:44:35;;;;;;;13.27;5.30;;;;;;;21.41;60.82;100401.00;5021652;28;20056;-57
2022/07/23 02:47:02;;;;;;;12.98;4.75;;;;;;;21.39;60.54;100400.50;5029076;28;20103;-56
2022/07/23 02:49:29;;;;;;;10.85;5.03;;;;;;;21.40;60.83;100401.31;5038444;28;20053;-54
2022/07/23 02:51:55;;;;;;;10.30;4.60;;;;;;;20.91;61.00;100328.34;5017240;28;20554;-53
2022/07/23 02:54:22;;;;;;;17.73;5.22;;;;;;;21.30;60.76;100394.13;5025256;28;20087;-53
2022/07/23 02:56:51;;;;;;;16.92;5.22;;;;;;;21.28;61.00;100393.63;5027386;28;20132;-55
2022/07/23 02:59:18;;;;;;;10.60;5.53;;;;;;;20.99;60.91;100347.28;5030265;28;20095;-55
2022/07/23 03:01:45;;;;;;;9.65;4.95;;;;;;;21.22;60.81;100395.88;5032684;28;20125;-56
2022/07/23 03:04:12;;;;;;;18.63;6.22;;;;;;;21.14;60.92;100381.81;5023578;28;20053;-58
2022/07/23 03:06:39;;;;;;;16.50;5.80;;;;;;;21.26;60.97;100413.88;5028452;28;20077;-59
2022/07/23 03:09:06;;;;;;;13.43;5.90;;;;;;;21.25;61.04;100412.22;5030049;28;20200;-59
2022/07/23 03:11:33;;;;;;;12.52;5.70;;;;;;;21.05;61.14;100384.78;5026341;28;20133;-59
2022/07/23 03:14:00;;;;;;;13.68;5.72;;;;;;;21.15;61.24;100407.00;5030501;28;20132;-59
2022/07/23 03:16:26;;;;;;;14.00;5.05;;;;;;;21.06;61.37;100392.94;5027697;28;20128;-59
2022/07/23 03:18:53;;;;;;;12.30;5.05;;;;;;;21.17;61.07;100413.16;5026070;28;20050;-59
2022/07/23 03:21:20;;;;;;;22.10;7.53;;;;;;;21.13;61.04;100406.56;5025080;28;20136;-59
2022/07/23 03:23:47;;;;;;;14.68;6.78;;;;;;;21.09;61.24;100402.75;5031625;28;20447;-58
2022/07/23 03:26:14;;;;;;;18.20;7.75;;;;;;;21.09;61.30;100397.06;5025789;28;20476;-59
2022/07/23 03:28:40;;;;;;;17.55;7.30;;;;;;;21.16;61.35;100407.84;5023916;28;20085;-58
2022/07/23 03:31:07;;;;;;;11.75;5.10;;;;;;;21.00;61.52;100385.84;5027502;28;20076;-58
2022/07/23 03:33:34;;;;;;;12.82;5.60;;;;;;;21.01;61.29;100392.34;5028547;28;20064;-58
2022/07/23 03:36:01;;;;;;;19.77;6.47;;;;;;;20.99;61.36;100389.03;5027417;28;20176;-58
2022/07/23 03:38:30;;;;;;;10.70;6.53;;;;;;;21.07;61.10;100405.13;5030207;28;20132;-58
2022/07/23 03:40:57;;;;;;;13.43;5.20;;;;;;;20.98;61.19;100399.56;5024551;28;20092;-59
2022/07/23 03:43:25;;;;;;;11.02;5.25;;;;;;;20.98;61.29;100408.06;5028775;28;20566;-58
2022/07/23 03:45:52;;;;;;;13.07;5.35;;;;;;;20.94;61.55;100404.28;5025479;28;20053;-59
2022/07/23 03:48:19;;;;;;;12.13;5.60;;;;;;;20.88;61.56;100410.56;5042454;28;20467;-58
2022/07/23 03:50:46;;;;;;;16.45;7.35;;;;;;;20.77;61.67;100396.81;5030156;28;20089;-58
2022/07/23 03:53:13;;;;;;;13.40;6.20;;;;;;;20.84;61.82;100410.44;5033333;28;20460;-58
2022/07/23 03:55:40;;;;;;;22.73;8.85;;;;;;;20.82;61.89;100418.50;5025024;28;20156;-60
2022/07/23 03:58:07;;;;;;;25.05;6.35;;;;;;;20.69;62.12;100394.13;5034568;28;20115;-61
2022/07/23 04:00:33;;;;;;;15.52;5.40;;;;;;;20.82;62.08;100427.00;5034054;28;20136;-61
2022/07/23 04:03:00;;;;;;;15.32;6.07;;;;;;;20.83;62.19;100429.47;5029897;28;20092;-63
2022/07/23 04:05:27;;;;;;;9.52;5.65;;;;;;;20.51;62.34;100374.47;5028848;28;20050;-58
2022/07/23 04:07:54;;;;;;;15.63;6.85;;;;;;;20.77;62.24;100416.69;5038768;28;20080;-54
2022/07/23 04:10:21;;;;;;;10.15;5.45;;;;;;;20.81;62.24;100406.28;5033635;28;20469;-60
2022/07/23 04:12:48;;;;;;;11.35;5.88;;;;;;;20.41;62.13;100346.53;5025112;28;20084;-59
2022/07/23 04:15:14;;;;;;;15.98;6.63;;;;;;;20.80;62.05;100410.31;5030787;28;20081;-59
2022/07/23 04:17:43;;;;;;;14.65;5.93;;;;;;;20.85;62.16;100414.91;5034138;28;20081;-56
2022/07/23 04:20:11;;;;;;;13.13;6.43;;;;;;;20.88;61.98;100419.91;5030239;28;20080;-54
2022/07/23 04:22:38;;;;;;;11.05;4.93;;;;;;;20.78;62.08;100404.16;5029527;28;20046;-56
2022/07/23 04:25:05;;;;;;;15.57;5.75;;;;;;;20.49;61.96;100365.44;5030887;28;20508;-55
2022/07/23 04:27:33;;;;;;;15.80;6.65;;;;;;;20.78;62.20;100409.81;5022301;28;20499;-55
2022/07/23 04:30:00;;;;;;;14.48;5.88;;;;;;;20.76;62.17;100423.56;5022444;28;20085;-55
2022/07/23 04:32:27;;;;;;;13.20;5.03;;;;;;;20.63;62.23;100396.34;5024730;28;20045;-53
2022/07/23 04:35:56;;;;;;;13.18;5.38;;;;;;;20.70;62.32;100421.31;5030234;28;20454;-54
2022/07/23 04:39:06;;;;;;;15.75;5.28;;;;;;;20.67;62.00;100422.00;5043065;28;20044;-54
2022/07/23 04:41:34;;;;;;;13.07;5.35;;;;;;;20.66;62.48;100426.84;5024095;28;20563;-53
2022/07/23 04:44:02;;;;;;;12.98;5.57;;;;;;;20.67;62.69;100427.69;5028944;28;20053;-53
2022/07/23 04:46:29;;;;;;;13.45;5.38;;;;;;;20.65;62.77;100427.19;5031228;28;20073;-53
2022/07/23 04:48:57;;;;;;;11.23;5.15;;;;;;;20.71;62.94;100440.81;5032848;28;20060;-53
2022/07/23 04:51:25;;;;;;;22.23;5.55;;;;;;;20.68;62.71;100443.50;5028145;28;20168;-49
2022/07/23 04:53:52;;;;;;;13.55;5.72;;;;;;;20.66;62.52;100440.22;5028068;28;21957;-50
2022/07/23 04:56:19;;;;;;;13.13;5.25;;;;;;;20.59;62.65;100435.94;5028073;28;20091;-51
2022/07/23 04:58:46;;;;;;;13.93;5.20;;;;;;;20.54;62.46;100429.66;5028995;28;20095;-52
2022/07/23 05:01:13;;;;;;;14.68;6.38;;;;;;;20.63;62.39;100443.75;5025147;28;20050;-52
2022/07/23 05:03:40;;;;;;;12.93;5.15;;;;;;;20.57;62.59;100452.47;5026265;28;20054;-52
2022/07/23 05:06:07;;;;;;;14.25;5.32;;;;;;;20.46;62.71;100439.88;5022292;28;20133;-53
2022/07/23 05:08:34;;;;;;;14.50;4.95;;;;;;;20.47;62.72;100452.88;5017522;28;20632;-53
2022/07/23 05:11:01;;;;;;;21.25;5.75;;;;;;;20.48;62.79;100457.41;5027207;28;20141;-53
2022/07/23 05:13:30;;;;;;;14.20;6.10;;;;;;;20.47;63.03;100450.06;5015789;28;20435;-51
2022/07/23 05:15:57;;;;;;;;;;;;;;;20.43;63.04;100442.59;5019783;28;20049;-51
2022/07/23 05:18:24;;;;;;;19.40;5.63;;;;;;;20.49;63.34;100438.38;5030999;28;20387;-54
2022/07/23 05:20:51;;;;;;;22.85;6.10;;;;;;;20.56;63.10;100448.00;5020813;28;20069;-54
2022/07/23 05:23:18;;;;;;;10.20;5.07;;;;;;;20.49;63.10;100425.00;5028359;28;20099;-54
2022/07/23 05:25:45;;;;;;;12.05;5.65;;;;;;;20.21;63.19;100389.97;5031114;28;20488;-54
2022/07/23 05:28:12;;;;;;;11.43;4.88;;;;;;;20.46;62.94;100430.56;5026502;28;20053;-54
2022/07/23 05:30:39;;;;;;;16.02;5.40;;;;;;;20.45;63.04;100438.25;5024635;28;20088;-53
2022/07/23 05:33:08;;;;;;;15.57;4.80;;;;;;;20.47;62.98;100441.53;5032703;28;20454;-56
2022/07/23 05:35:36;;;;;;;12.55;5.22;;;;;;;20.54;62.88;100446.69;5032144;28;20068;-53
2022/07/23 05:38:03;;;;;;;16.08;6.10;;;;;;;20.48;62.86;100451.72;5027762;28;20137;-55
2022/07/23 05:40:30;;;;;;;11.88;5.25;;;;;;;20.48;63.13;100451.72;5018972;28;20084;-56
2022/07/23 05:42:57;;;;;;;12.73;5.22;;;;;;;20.44;63.23;100450.75;5026305;28;20081;-55
2022/07/23 05:45:23;;;;;;;13.63;5.25;;;;;;;20.47;63.20;100457.72;5028506;28;20057;-55
2022/07/23 05:47:50;;;;;;;10.55;5.05;;;;;;;20.46;63.37;100456.91;5028279;28;20460;-56
2022/07/23 05:50:18;;;;;;;12.65;5.65;;;;;;;20.43;63.58;100446.25;5010705;28;20140;-55
2022/07/23 05:52:45;;;;;;;10.05;5.28;;;;;;;20.56;63.38;100453.66;5024294;28;20060;-55
2022/07/23 05:55:13;;;;;;;12.27;5.30;;;;;;;20.61;63.61;100454.63;5023588;28;20054;-56
2022/07/23 05:57:41;;;;;;;13.95;4.97;;;;;;;20.70;63.37;100452.50;5024698;28;20045;-54
2022/07/23 06:00:10;;;;;;;15.52;5.45;;;;;;;20.76;63.15;100462.47;5024429;28;20069;-51
2022/07/23 06:02:38;;;;;;;15.30;5.45;;;;;;;20.81;63.11;100453.72;5027370;28;20076;-56
2022/07/23 06:05:07;;;;;;;11.07;4.90;;;;;;;20.85;63.24;100440.47;5025130;28;20496;-58
2022/07/23 06:07:35;;;;;;;14.50;6.32;;;;;;;20.85;63.27;100433.97;5024790;28;20060;-58
2022/07/23 06:10:04;;;;;;;12.52;5.20;;;;;;;21.09;63.17;100453.03;5020872;28;20081;-58
2022/07/23 06:12:31;;;;;;;12.77;5.63;;;;;;;21.18;62.92;100451.72;5024463;28;20053;-57
2022/07/23 06:14:58;;;;;;;13.10;4.75;;;;;;;21.28;62.72;100454.09;5023176;28;20111;-58
2022/07/23 06:17:25;;;;;;;10.43;5.18;;;;;;;21.12;62.55;100412.56;5028282;28;20107;-58
2022/07/23 06:19:53;;;;;;;12.55;5.55;;;;;;;21.56;62.55;100455.41;5024251;28;20053;-58
2022/07/23 06:22:20;;;;;;;17.52;5.07;;;;;;;21.77;61.96;100453.22;5025098;28;20072;-59
2022/07/23 06:24:49;;;;;;;11.77;6.50;;;;;;;21.91;61.76;100427.25;5027116;28;20073;-57
2022/07/23 06:27:16;;;;;;;16.70;5.15;;;;;;;22.54;61.25;100460.81;5025558;28;20065;-58
2022/07/23 06:29:47;;;;;;;12.15;6.80;;;;;;;22.81;60.71;100454.25;5023674;28;20058;-57
2022/07/23 06:32:14;;;;;;;10.57;5.82;;;;;;;23.18;59.86;100471.09;5024055;28;20184;-58
2022/07/23 06:34:40;;;;;;;11.32;5.60;;;;;;;23.47;59.76;100468.94;5022139;28;20057;-58
2022/07/23 06:37:14;;;;;;;11.38;6.13;;;;;;;23.72;59.13;100453.28;5023842;28;20515;-58
2022/07/23 06:39:41;;;;;;;15.90;7.13;;;;;;;24.01;58.55;100453.94;5022250;28;20049;-58
2022/07/23 06:42:10;;;;;;;11.70;6.32;;;;;;;24.38;58.21;100453.47;5022687;28;20602;-57
2022/07/23 06:44:37;;;;;;;15.27;5.47;;;;;;;24.63;57.50;100451.13;5019164;28;20045;-58
2022/07/23 06:47:04;;;;;;;18.67;5.70;;;;;;;24.82;56.82;100434.78;5019738;28;20396;-57
2022/07/23 06:49:31;;;;;;;10.27;4.72;;;;;;;25.14;56.00;100443.13;5031957;28;20473;-58
2022/07/23 06:51:58;;;;;;;17.70;5.18;;;;;;;25.47;55.35;100456.75;5020610;28;20081;-58
2022/07/23 06:54:25;;;;;;;11.98;5.57;;;;;;;25.66;55.05;100450.06;5018400;28;20084;-58
2022/07/23 06:56:52;;;;;;;8.45;5.25;;;;;;;25.94;54.48;100454.56;5027182;28;20042;-58
2022/07/23 06:59:42;;;;;;;15.02;5.50;;;;;;;26.19;54.17;100452.88;5021866;28;20138;-57
2022/07/23 07:02:10;;;;;;;18.83;6.22;;;;;;;26.41;53.54;100464.59;5020607;28;20458;-58
2022/07/23 07:04:37;;;;;;;16.63;6.32;;;;;;;26.60;53.26;100467.31;5020053;28;20052;-58
2022/07/23 07:07:04;;;;;;;11.35;5.60;;;;;;;26.83;52.79;100466.31;5023393;28;20135;-59
2022/07/23 07:09:31;;;;;;;10.52;5.43;;;;;;;26.81;52.03;100435.19;5025319;28;20045;-58
2022/07/23 07:11:58;;;;;;;19.95;9.63;;;;;;;27.19;51.94;100475.28;5022286;28;20088;-58
2022/07/23 07:14:25;;;;;;;11.75;7.40;;;;;;;27.35;51.38;100478.69;5017706;28;20045;-58
2022/07/23 07:16:52;;;;;;;16.08;8.15;;;;;;;27.58;51.17;100478.47;5024823;28;20076;-59
2022/07/23 07:19:19;;;;;;;16.40;7.00;;;;;;;27.73;50.55;100467.94;5028786;28;20563;-58
2022/07/23 07:21:46;;;;;;;15.68;6.85;;;;;;;27.71;49.93;100431.00;5028465;28;20512;-58
2022/07/23 07:24:13;;;;;;;16.85;6.47;;;;;;;28.20;49.48;100471.88;5028679;28;20137;-58
2022/07/23 07:26:40;;;;;;;14.10;7.15;;;;;;;28.31;48.96;100469.91;5033682;28;20475;-59
2022/07/23 07:29:07;;;;;;;13.27;5.90;;;;;;;28.54;48.88;100481.09;5022914;28;20050;-58
2022/07/23 07:31:34;;;;;;;13.50;5.63;;;;;;;28.69;48.43;100477.03;5027791;28;20092;-58
2022/07/23 07:34:01;;;;;;;12.85;6.25;;;;;;;28.81;48.01;100473.78;5029706;28;20504;-58
2022/07/23 07:36:28;;;;;;;15.93;6.80;;;;;;;29.03;47.51;100486.19;5028300;28;20103;-57
2022/07/23 07:38:55;;;;;;;15.80;5.35;;;;;;;29.20;47.51;100478.81;5028972;28;20147;-58
2022/07/23 07:41:23;;;;;;;12.60;5.40;;;;;;;29.36;46.82;100480.44;5023288;28;20127;-57
2022/07/23 07:43:50;;;;;;;16.42;5.75;;;;;;;29.45;47.19;100481.66;5029008;28;20490;-58
2022/07/23 07:46:18;;;;;;;16.20;5.40;;;;;;;29.58;46.77;100482.09;5023676;28;20160;-57
2022/07/23 07:48:45;;;;;;;11.93;5.25;;;;;;;29.75;46.21;100489.09;5021819;28;20065;-58
2022/07/23 07:51:12;;;;;;;8.63;5.10;;;;;;;29.80;45.86;100480.00;5016521;28;20050;-58
2022/07/23 07:53:39;;;;;;;8.07;5.07;;;;;;;29.99;46.04;100485.31;5024267;28;20048;-58
2022/07/23 07:56:06;;;;;;;12.18;5.03;;;;;;;29.97;45.28;100473.38;5025423;28;20077;-57
2022/07/23 07:58:33;;;;;;;17.40;6.18;;;;;;;30.11;45.13;100486.94;5023446;28;20128;-57
2022/07/23 08:01:02;;;;;;;9.60;4.90;;;;;;;30.28;45.35;100484.44;5018902;28;20119;-58
2022/07/23 08:03:29;;;;;;;11.02;5.22;;;;;;;30.39;44.72;100486.06;5026104;28;20052;-58
2022/07/23 08:05:56;;;;;;;17.55;5.43;;;;;;;30.45;44.87;100481.47;5023553;28;20581;-61
2022/07/23 08:08:24;;;;;;;15.75;5.60;;;;;;;30.60;44.48;100490.88;5022934;28;20484;-64
2022/07/23 08:10:51;;;;;;;11.65;5.07;;;;;;;30.47;44.29;100458.03;5024620;28;20506;-62
2022/07/23 08:13:18;;;;;;;18.70;6.10;;;;;;;30.80;44.19;100484.63;5025851;28;20054;-61
2022/07/23 08:15:45;;;;;;;19.60;10.50;;;;;;;31.00;44.03;100496.44;5028570;28;20091;-62
2022/07/23 08:18:12;;;;;;;16.30;5.78;;;;;;;31.15;43.62;100501.69;5034707;28;20049;-61
2022/07/23 08:20:40;;;;;;;12.38;5.63;;;;;;;31.26;43.25;100492.97;5026224;28;20041;-61
2022/07/23 08:23:08;;;;;;;14.45;5.80;;;;;;;31.30;42.43;100482.19;5022480;28;20110;-61
2022/07/23 08:25:37;;;;;;;13.95;5.40;;;;;;;31.49;43.06;100488.66;5019077;28;20111;-61
2022/07/23 08:28:07;;;;;;;10.38;5.55;;;;;;;31.67;42.44;100495.13;5022098;28;20077;-60
2022/07/23 08:30:36;;;;;;;9.35;5.07;;;;;;;31.75;42.42;100496.66;5025010;28;20096;-60
2022/07/23 08:33:12;;;;;;;11.07;4.88;;;;;;;31.74;42.20;100491.34;5025063;28;20045;-61
2022/07/23 08:35:57;;;;;;;9.98;4.50;;;;;;;31.69;41.98;100491.78;5023569;28;20064;-62
2022/07/23 08:38:28;;;;;;;11.80;5.13;;;;;;;31.73;42.34;100493.41;5019036;28;20046;-63
2022/07/23 08:40:59;;;;;;;9.55;4.50;;;;;;;31.90;41.96;100487.88;5018002;28;20056;-62
2022/07/23 08:43:29;;;;;;;7.43;4.55;;;;;;;31.95;41.73;100482.47;5025792;28;20048;-61
2022/07/23 08:45:58;;;;;;;12.50;4.63;;;;;;;32.12;41.31;100483.53;5031469;28;20085;-62
2022/07/23 08:48:32;;;;;;;13.18;5.55;;;;;;;32.33;41.13;100489.03;5030800;28;20081;-60
2022/07/23 08:51:02;;;;;;;10.63;5.05;;;;;;;32.44;40.78;100485.22;5025533;28;20080;-64
2022/07/23 08:53:30;;;;;;;9.50;4.95;;;;;;;32.50;40.82;100487.22;5016446;28;20069;-60
2022/07/23 08:56:03;;;;;;;13.20;5.47;;;;;;;32.60;40.23;100488.31;5017351;28;20085;-62
2022/07/23 08:58:31;;;;;;;7.88;4.63;;;;;;;32.64;40.31;100496.94;5025673;28;20143;-62
2022/07/23 09:00:59;;;;;;;8.57;4.85;;;;;;;32.78;39.54;100490.97;5033666;28;20107;-64
2022/07/23 09:03:32;;;;;;;9.75;5.00;;;;;;;32.72;39.55;100467.50;5025849;28;20049;-62
2022/07/23 09:06:03;;;;;;;11.45;4.75;;;;;;;32.92;39.54;100484.97;5025057;28;20571;-62
2022/07/23 09:08:40;;;;;;;8.25;4.80;;;;;;;33.04;39.08;100489.38;5024610;28;20057;-61
2022/07/23 09:11:10;;;;;;;12.80;4.95;;;;;;;33.18;38.92;100485.44;5027396;28;20060;-61
2022/07/23 09:13:54;;;;;;;8.50;4.78;;;;;;;33.23;38.94;100482.03;5029645;28;20042;-62
2022/07/23 09:16:28;;;;;;;10.63;4.00;;;;;;;33.46;38.63;100487.03;5027931;28;20061;-60
2022/07/23 09:18:58;;;;;;;9.35;4.75;;;;;;;33.52;38.25;100488.19;5028890;28;20053;-62
2022/07/23 09:21:28;;;;;;;8.73;4.28;;;;;;;33.52;38.24;100502.69;5032588;28;20053;-62
2022/07/23 09:24:04;;;;;;;10.50;4.53;;;;;;;33.64;38.14;100493.38;5020194;28;20140;-63
2022/07/23 09:26:44;;;;;;;10.88;4.53;;;;;;;33.51;38.35;100457.63;5017776;28;20470;-61
2022/07/23 09:29:19;;;;;;;10.68;4.53;;;;;;;33.73;38.14;100496.50;5028299;28;20050;-62
2022/07/23 09:31:53;;;;;;;13.93;4.75;;;;;;;33.81;37.98;100479.00;5026956;28;20085;-62
2022/07/23 09:34:21;;;;;;;13.07;5.28;;;;;;;33.99;37.61;100491.06;5025570;28;20077;-61
2022/07/23 09:36:51;;;;;;;16.80;6.28;;;;;;;33.92;37.60;100494.09;5020131;28;20175;-61
2022/07/23 09:39:33;;;;;;;14.05;5.53;;;;;;;33.50;38.25;100487.81;5022915;28;20076;-62
2022/07/23 09:42:20;;;;;;;13.38;5.32;;;;;;;33.61;38.29;100494.25;5018546;28;20099;-61
2022/07/23 09:44:49;;;;;;;15.10;5.25;;;;;;;33.46;37.65;100458.09;5024842;28;20471;-62
2022/07/23 09:47:17;;;;;;;10.32;5.18;;;;;;;33.63;37.74;100485.94;5030026;28;20053;-62
2022/07/23 09:50:08;;;;;;;16.10;4.45;;;;;;;33.86;37.63;100499.59;5025372;28;20053;-62
2022/07/23 09:52:48;;;;;;;10.35;4.80;;;;;;;34.12;37.19;100494.97;5020739;28;20087;-62
2022/07/23 09:55:16;;;;;;;10.02;4.78;;;;;;;34.11;36.97;100490.44;5022132;28;20067;-61
2022/07/23 09:57:45;;;;;;;10.23;4.40;;;;;;;34.34;36.82;100494.53;5023467;28;20088;-62
2022/07/23 10:00:13;;;;;;;18.30;4.45;;;;;;;34.61;36.74;100498.13;5023481;28;20164;-61
2022/07/23 10:02:41;;;;;;;11.68;4.82;;;;;;;34.64;36.06;100497.22;5026274;28;20049;-61
2022/07/23 10:05:08;;;;;;;12.27;4.60;;;;;;;34.78;36.07;100496.09;5028135;28;20056;-61
2022/07/23 10:07:39;;;;;;;9.85;3.88;;;;;;;34.65;35.60;100469.84;5022318;28;20126;-62
2022/07/23 10:10:07;;;;;;;12.88;4.45;;;;;;;34.63;35.62;100486.91;5025670;28;20087;-61
2022/07/23 10:15:07;;;;;;;11.65;4.38;;;;;;;34.52;35.35;100492.09;5026514;28;20072;-62
2022/07/23 10:17:35;;;;;;;13.63;4.22;;;;;;;34.47;35.90;100498.41;5023684;28;20089;-61
2022/07/23 10:20:04;;;;;;;10.45;4.68;;;;;;;34.50;35.51;100490.88;5025207;28;20096;-61
2022/07/23 10:22:37;;;;;;;15.95;4.65;;;;;;;34.49;35.80;100481.38;5017982;28;20543;-62
2022/07/23 10:25:12;;;;;;;10.43;5.13;;;;;;;34.51;35.67;100492.53;5022919;28;20088;-62
2022/07/23 10:27:48;;;;;;;17.55;6.85;;;;;;;34.77;35.68;100493.63;5013851;28;20545;-62
2022/07/23 10:30:34;;;;;;;12.93;5.75;;;;;;;34.97;35.18;100482.78;5026703;28;20124;-62
2022/07/23 10:33:03;;;;;;;17.88;6.22;;;;;;;35.13;34.59;100493.66;5020819;28;20053;-62
2022/07/23 10:35:39;;;;;;;12.65;4.40;;;;;;;35.19;34.54;100480.25;5020232;28;20964;-63
2022/07/23 10:38:23;;;;;;;13.93;4.93;;;;;;;35.29;34.72;100478.34;5017845;28;20133;-62
2022/07/23 10:40:56;;;;;;;8.48;4.20;;;;;;;35.42;34.72;100487.97;5025812;28;22016;-62
2022/07/23 10:43:23;;;;;;;11.23;4.28;;;;;;;35.51;34.89;100496.88;5020287;28;20042;-62
2022/07/23 10:45:51;;;;;;;12.57;5.47;;;;;;;35.67;33.96;100486.53;5024478;28;20200;-62
2022/07/23 10:48:21;;;;;;;8.63;4.07;;;;;;;35.71;34.41;100485.16;5019498;28;20507;-61
2022/07/23 10:51:06;;;;;;;9.45;4.97;;;;;;;35.58;33.94;100493.78;5022014;28;20058;-61
2022/07/23 10:53:51;;;;;;;11.82;4.35;;;;;;;35.33;34.33;100494.38;5027555;28;20132;-61
2022/07/23 10:56:51;;;;;;;7.53;3.88;;;;;;;35.45;34.58;100495.75;5021671;28;20479;-61
2022/07/23 10:59:18;;;;;;;9.30;4.82;;;;;;;35.66;34.49;100502.28;5017382;28;20563;-62
2022/07/23 11:01:46;;;;;;;16.23;5.20;;;;;;;35.78;33.91;100487.03;5022222;28;20419;-62
2022/07/23 11:04:15;;;;;;;9.18;4.45;;;;;;;35.75;33.94;100499.56;5024869;28;20049;-61
2022/07/23 11:07:02;;;;;;;9.18;4.45;;;;;;;35.56;34.20;100489.72;5031155;28;20053;-61
2022/07/23 11:09:38;;;;;;;10.00;3.70;;;;;;;35.78;33.42;100495.75;5021556;28;20050;-61
2022/07/23 11:12:14;;;;;;;10.27;4.53;;;;;;;35.72;33.76;100495.47;5014699;28;20128;-60
2022/07/23 11:15:05;;;;;;;9.60;4.18;;;;;;;35.75;33.98;100487.94;5018237;28;20120;-61
2022/07/23 11:17:37;;;;;;;8.90;4.18;;;;;;;35.95;33.55;100502.38;5024246;28;20128;-62
2022/07/23 11:20:07;;;;;;;9.60;3.95;;;;;;;36.06;32.72;100497.91;5017850;28;20132;-61
2022/07/23 11:22:39;;;;;;;10.77;4.95;;;;;;;35.79;32.95;100479.94;5025968;28;20046;-61
2022/07/23 11:25:06;;;;;;;13.10;4.75;;;;;;;35.82;33.43;100493.56;5017630;28;20050;-59
2022/07/23 11:27:44;;;;;;;9.48;4.88;;;;;;;35.79;32.92;100474.13;5022633;28;20137;-61
2022/07/23 11:30:31;;;;;;;9.65;4.10;;;;;;;36.16;33.47;100495.16;5016837;28;20476;-60
2022/07/23 11:33:07;;;;;;;14.15;4.78;;;;;;;35.98;32.85;100502.25;5026730;28;20087;-61